Geyser, Montana
Current Conditions -  °F | °C
As of 8:56 PM on Thursday 20 Nov 2014 (Local Time) from KGFA Reporting Station
Clear Clear  
Wind Chill: 29°   Ceiling: Unl
Heat Index: 40°   Visibility: 10mi
Dew Point: 30°   Wind: 26mph
Humidity: 69%   Direction: 230°SW
Pressure: 29.79"   Gusts: 31mph
Location:  47.25°N, 110.5°W
Report Text: KGFA 210356Z AUTO 23023G27KT 10SM CLR 04/M01 A2979 RMK AO2 PK WND 23026/55 SLP118 T00421011
Loading
Personal Weather Stations






























Interactive Weather Map New forecast layout! Learn more

10-Day Weather Forecast

Advertisements
Track Severe Weather on mobile